sensor_id;sensor_type;location;lat;lon;timestamp;P1;durP1;ratioP1;P2;durP2;ratioP2
27802;SDS011;15182;48.174;11.562;2024-03-02T00:01:43;7.47;;;6.90;;
27802;SDS011;15182;48.174;11.562;2024-03-02T00:04:11;8.23;;;7.53;;
27802;SDS011;15182;48.174;11.562;2024-03-02T00:06:39;8.03;;;7.23;;
27802;SDS011;15182;48.174;11.562;2024-03-02T00:09:07;6.87;;;6.43;;
27802;SDS011;15182;48.174;11.562;2024-03-02T00:11:38;7.43;;;7.03;;
27802;SDS011;15182;48.174;11.562;2024-03-02T00:14:06;7.37;;;6.87;;
27802;SDS011;15182;48.174;11.562;2024-03-02T00:16:34;8.23;;;7.43;;
27802;SDS011;15182;48.174;11.562;2024-03-02T00:19:04;7.67;;;6.87;;
27802;SDS011;15182;48.174;11.562;2024-03-02T00:21:34;6.83;;;6.43;;
27802;SDS011;15182;48.174;11.562;2024-03-02T00:24:02;7.83;;;7.23;;
27802;SDS011;15182;48.174;11.562;2024-03-02T00:26:46;7.67;;;7.07;;
27802;SDS011;15182;48.174;11.562;2024-03-02T00:29:15;7.73;;;7.10;;
27802;SDS011;15182;48.174;11.562;2024-03-02T00:31:45;7.73;;;7.23;;
27802;SDS011;15182;48.174;11.562;2024-03-02T00:34:15;8.20;;;7.50;;
27802;SDS011;15182;48.174;11.562;2024-03-02T00:36:44;7.73;;;7.07;;
27802;SDS011;15182;48.174;11.562;2024-03-02T00:39:14;11.47;;;7.87;;
27802;SDS011;15182;48.174;11.562;2024-03-02T00:41:43;7.90;;;7.10;;
27802;SDS011;15182;48.174;11.562;2024-03-02T00:44:12;7.43;;;6.73;;
27802;SDS011;15182;48.174;11.562;2024-03-02T00:46:40;9.10;;;8.20;;
27802;SDS011;15182;48.174;11.562;2024-03-02T00:49:11;15.83;;;8.90;;
27802;SDS011;15182;48.174;11.562;2024-03-02T00:51:48;7.70;;;7.10;;
27802;SDS011;15182;48.174;11.562;2024-03-02T00:54:19;8.60;;;7.90;;
27802;SDS011;15182;48.174;11.562;2024-03-02T00:56:49;7.63;;;7.07;;
27802;SDS011;15182;48.174;11.562;2024-03-02T00:59:17;7.60;;;7.10;;
27802;SDS011;15182;48.174;11.562;2024-03-02T01:01:45;7.63;;;7.07;;
27802;SDS011;15182;48.174;11.562;2024-03-02T01:04:13;7.03;;;6.53;;
27802;SDS011;15182;48.174;11.562;2024-03-02T01:06:42;7.33;;;6.90;;
27802;SDS011;15182;48.174;11.562;2024-03-02T01:09:10;8.03;;;7.37;;
27802;SDS011;15182;48.174;11.562;2024-03-02T01:11:39;7.80;;;7.13;;
27802;SDS011;15182;48.174;11.562;2024-03-02T01:14:07;8.07;;;7.40;;
27802;SDS011;15182;48.174;11.562;2024-03-02T01:16:35;7.63;;;7.03;;
27802;SDS011;15182;48.174;11.562;2024-03-02T01:19:02;7.47;;;6.97;;
27802;SDS011;15182;48.174;11.562;2024-03-02T01:21:30;7.73;;;7.20;;
27802;SDS011;15182;48.174;11.562;2024-03-02T01:24:00;7.20;;;6.70;;
27802;SDS011;15182;48.174;11.562;2024-03-02T01:26:27;7.93;;;7.13;;
27802;SDS011;15182;48.174;11.562;2024-03-02T01:28:55;8.20;;;7.50;;
27802;SDS011;15182;48.174;11.562;2024-03-02T01:31:23;7.97;;;7.37;;
27802;SDS011;15182;48.174;11.562;2024-03-02T01:33:51;7.60;;;7.10;;
27802;SDS011;15182;48.174;11.562;2024-03-02T01:36:18;7.27;;;6.77;;
27802;SDS011;15182;48.174;11.562;2024-03-02T01:38:46;7.87;;;7.27;;
27802;SDS011;15182;48.174;11.562;2024-03-02T01:41:15;8.27;;;7.53;;
27802;SDS011;15182;48.174;11.562;2024-03-02T01:43:43;8.77;;;8.07;;
27802;SDS011;15182;48.174;11.562;2024-03-02T01:46:11;8.67;;;8.00;;
27802;SDS011;15182;48.174;11.562;2024-03-02T01:48:39;7.80;;;7.10;;
27802;SDS011;15182;48.174;11.562;2024-03-02T01:51:07;8.53;;;7.73;;
27802;SDS011;15182;48.174;11.562;2024-03-02T01:53:36;7.73;;;7.20;;
27802;SDS011;15182;48.174;11.562;2024-03-02T01:56:04;7.30;;;6.80;;
27802;SDS011;15182;48.174;11.562;2024-03-02T01:58:33;7.13;;;6.67;;
27802;SDS011;15182;48.174;11.562;2024-03-02T02:01:02;8.33;;;7.53;;
27802;SDS011;15182;48.174;11.562;2024-03-02T02:03:30;7.60;;;7.00;;
27802;SDS011;15182;48.174;11.562;2024-03-02T02:05:58;7.50;;;7.00;;
27802;SDS011;15182;48.174;11.562;2024-03-02T02:08:26;7.53;;;7.07;;
27802;SDS011;15182;48.174;11.562;2024-03-02T02:10:53;7.97;;;7.37;;
27802;SDS011;15182;48.174;11.562;2024-03-02T02:13:21;7.70;;;7.20;;
27802;SDS011;15182;48.174;11.562;2024-03-02T02:15:51;7.63;;;7.13;;
27802;SDS011;15182;48.174;11.562;2024-03-02T02:18:19;7.83;;;7.33;;
27802;SDS011;15182;48.174;11.562;2024-03-02T02:20:47;7.40;;;6.93;;
27802;SDS011;15182;48.174;11.562;2024-03-02T02:23:16;8.03;;;7.43;;
27802;SDS011;15182;48.174;11.562;2024-03-02T02:25:44;7.77;;;7.33;;
27802;SDS011;15182;48.174;11.562;2024-03-02T02:28:12;7.90;;;7.17;;
27802;SDS011;15182;48.174;11.562;2024-03-02T02:30:40;7.53;;;7.07;;
27802;SDS011;15182;48.174;11.562;2024-03-02T02:33:08;7.50;;;7.10;;
27802;SDS011;15182;48.174;11.562;2024-03-02T02:35:36;7.53;;;7.03;;
27802;SDS011;15182;48.174;11.562;2024-03-02T02:38:04;7.13;;;6.53;;
27802;SDS011;15182;48.174;11.562;2024-03-02T02:40:33;7.30;;;6.77;;
27802;SDS011;15182;48.174;11.562;2024-03-02T02:43:01;7.60;;;7.10;;
27802;SDS011;15182;48.174;11.562;2024-03-02T02:45:29;7.93;;;7.33;;
27802;SDS011;15182;48.174;11.562;2024-03-02T02:47:57;7.80;;;7.27;;
27802;SDS011;15182;48.174;11.562;2024-03-02T02:50:27;7.53;;;6.93;;
27802;SDS011;15182;48.174;11.562;2024-03-02T02:52:54;7.50;;;6.90;;
27802;SDS011;15182;48.174;11.562;2024-03-02T02:55:22;7.43;;;6.90;;
27802;SDS011;15182;48.174;11.562;2024-03-02T02:57:51;7.37;;;6.87;;
27802;SDS011;15182;48.174;11.562;2024-03-02T03:00:19;7.17;;;6.57;;
27802;SDS011;15182;48.174;11.562;2024-03-02T03:02:48;7.10;;;6.63;;
27802;SDS011;15182;48.174;11.562;2024-03-02T03:05:17;6.73;;;6.33;;
27802;SDS011;15182;48.174;11.562;2024-03-02T03:07:45;7.00;;;6.60;;
27802;SDS011;15182;48.174;11.562;2024-03-02T03:10:15;6.83;;;6.53;;
27802;SDS011;15182;48.174;11.562;2024-03-02T03:12:44;6.23;;;5.93;;
27802;SDS011;15182;48.174;11.562;2024-03-02T03:15:13;7.23;;;6.77;;
27802;SDS011;15182;48.174;11.562;2024-03-02T03:17:42;7.27;;;6.67;;
27802;SDS011;15182;48.174;11.562;2024-03-02T03:20:11;6.73;;;6.33;;
27802;SDS011;15182;48.174;11.562;2024-03-02T03:22:41;7.10;;;6.60;;
27802;SDS011;15182;48.174;11.562;2024-03-02T03:25:08;7.40;;;6.80;;
27802;SDS011;15182;48.174;11.562;2024-03-02T03:27:36;7.07;;;6.60;;
27802;SDS011;15182;48.174;11.562;2024-03-02T03:30:04;7.63;;;7.03;;
27802;SDS011;15182;48.174;11.562;2024-03-02T03:32:35;7.23;;;6.73;;
27802;SDS011;15182;48.174;11.562;2024-03-02T03:35:03;7.53;;;6.93;;
27802;SDS011;15182;48.174;11.562;2024-03-02T03:37:32;6.70;;;6.37;;
27802;SDS011;15182;48.174;11.562;2024-03-02T03:40:00;6.87;;;6.47;;
27802;SDS011;15182;48.174;11.562;2024-03-02T03:42:28;7.30;;;6.70;;
27802;SDS011;15182;48.174;11.562;2024-03-02T03:44:56;7.30;;;6.90;;
27802;SDS011;15182;48.174;11.562;2024-03-02T03:47:24;6.70;;;6.30;;
27802;SDS011;15182;48.174;11.562;2024-03-02T03:49:53;7.50;;;7.00;;
27802;SDS011;15182;48.174;11.562;2024-03-02T03:52:21;7.90;;;7.40;;
27802;SDS011;15182;48.174;11.562;2024-03-02T03:54:49;7.43;;;6.93;;
27802;SDS011;15182;48.174;11.562;2024-03-02T03:57:17;8.13;;;7.53;;
27802;SDS011;15182;48.174;11.562;2024-03-02T03:59:44;7.50;;;7.00;;
27802;SDS011;15182;48.174;11.562;2024-03-02T04:02:13;7.43;;;7.03;;
27802;SDS011;15182;48.174;11.562;2024-03-02T04:04:41;7.50;;;7.00;;
27802;SDS011;15182;48.174;11.562;2024-03-02T04:07:10;8.73;;;8.03;;
27802;SDS011;15182;48.174;11.562;2024-03-02T04:09:38;8.30;;;7.60;;
27802;SDS011;15182;48.174;11.562;2024-03-02T04:12:06;8.33;;;7.73;;
27802;SDS011;15182;48.174;11.562;2024-03-02T04:14:34;7.63;;;7.13;;
27802;SDS011;15182;48.174;11.562;2024-03-02T04:17:03;8.10;;;7.60;;
27802;SDS011;15182;48.174;11.562;2024-03-02T04:19:31;8.37;;;7.70;;
27802;SDS011;15182;48.174;11.562;2024-03-02T04:22:00;7.90;;;7.30;;
27802;SDS011;15182;48.174;11.562;2024-03-02T04:24:29;8.57;;;7.90;;
27802;SDS011;15182;48.174;11.562;2024-03-02T04:26:57;7.77;;;7.20;;
27802;SDS011;15182;48.174;11.562;2024-03-02T04:29:24;8.10;;;7.50;;
27802;SDS011;15182;48.174;11.562;2024-03-02T04:31:52;8.30;;;7.70;;
27802;SDS011;15182;48.174;11.562;2024-03-02T04:34:20;8.13;;;7.43;;
27802;SDS011;15182;48.174;11.562;2024-03-02T04:36:49;7.83;;;7.23;;
27802;SDS011;15182;48.174;11.562;2024-03-02T04:39:16;8.53;;;7.83;;
27802;SDS011;15182;48.174;11.562;2024-03-02T04:41:46;8.37;;;7.77;;
27802;SDS011;15182;48.174;11.562;2024-03-02T04:44:13;8.80;;;8.10;;
27802;SDS011;15182;48.174;11.562;2024-03-02T04:46:41;8.77;;;8.07;;
27802;SDS011;15182;48.174;11.562;2024-03-02T04:49:09;9.63;;;8.70;;
27802;SDS011;15182;48.174;11.562;2024-03-02T04:51:37;8.30;;;7.63;;
27802;SDS011;15182;48.174;11.562;2024-03-02T04:54:05;8.23;;;7.63;;
27802;SDS011;15182;48.174;11.562;2024-03-02T04:56:32;8.40;;;7.80;;
27802;SDS011;15182;48.174;11.562;2024-03-02T04:59:16;8.30;;;7.60;;
27802;SDS011;15182;48.174;11.562;2024-03-02T05:01:44;8.60;;;7.87;;
27802;SDS011;15182;48.174;11.562;2024-03-02T05:04:13;8.60;;;7.87;;
27802;SDS011;15182;48.174;11.562;2024-03-02T05:06:40;8.83;;;8.03;;
27802;SDS011;15182;48.174;11.562;2024-03-02T05:09:08;8.30;;;7.60;;
27802;SDS011;15182;48.174;11.562;2024-03-02T05:11:36;8.50;;;7.80;;
27802;SDS011;15182;48.174;11.562;2024-03-02T05:14:23;9.43;;;8.60;;
27802;SDS011;15182;48.174;11.562;2024-03-02T05:16:51;9.30;;;8.60;;
27802;SDS011;15182;48.174;11.562;2024-03-02T05:19:19;8.03;;;7.50;;
27802;SDS011;15182;48.174;11.562;2024-03-02T05:21:46;9.00;;;8.30;;
27802;SDS011;15182;48.174;11.562;2024-03-02T05:24:15;8.40;;;7.80;;
27802;SDS011;15182;48.174;11.562;2024-03-02T05:26:43;9.17;;;8.37;;
27802;SDS011;15182;48.174;11.562;2024-03-02T05:29:11;9.10;;;8.30;;
27802;SDS011;15182;48.174;11.562;2024-03-02T05:31:40;8.10;;;7.43;;
27802;SDS011;15182;48.174;11.562;2024-03-02T05:34:08;8.63;;;7.93;;
27802;SDS011;15182;48.174;11.562;2024-03-02T05:36:36;7.93;;;7.40;;
27802;SDS011;15182;48.174;11.562;2024-03-02T05:39:04;9.00;;;8.20;;
27802;SDS011;15182;48.174;11.562;2024-03-02T05:41:36;8.00;;;7.30;;
27802;SDS011;15182;48.174;11.562;2024-03-02T05:44:04;8.60;;;8.00;;
27802;SDS011;15182;48.174;11.562;2024-03-02T05:46:32;8.13;;;7.53;;
27802;SDS011;15182;48.174;11.562;2024-03-02T05:49:02;8.77;;;7.97;;
27802;SDS011;15182;48.174;11.562;2024-03-02T05:51:30;8.63;;;8.00;;
27802;SDS011;15182;48.174;11.562;2024-03-02T05:53:58;8.57;;;7.77;;
27802;SDS011;15182;48.174;11.562;2024-03-02T05:56:26;8.20;;;7.50;;
27802;SDS011;15182;48.174;11.562;2024-03-02T05:58:53;8.33;;;7.73;;
27802;SDS011;15182;48.174;11.562;2024-03-02T06:01:34;9.07;;;8.27;;
27802;SDS011;15182;48.174;11.562;2024-03-02T06:04:03;9.30;;;8.60;;
27802;SDS011;15182;48.174;11.562;2024-03-02T06:06:31;9.23;;;8.43;;
27802;SDS011;15182;48.174;11.562;2024-03-02T06:08:59;9.27;;;8.47;;
27802;SDS011;15182;48.174;11.562;2024-03-02T06:11:28;8.87;;;8.07;;
27802;SDS011;15182;48.174;11.562;2024-03-02T06:13:56;9.20;;;8.40;;
27802;SDS011;15182;48.174;11.562;2024-03-02T06:16:23;8.97;;;8.17;;
27802;SDS011;15182;48.174;11.562;2024-03-02T06:18:51;9.33;;;8.47;;
27802;SDS011;15182;48.174;11.562;2024-03-02T06:21:21;8.90;;;8.20;;
27802;SDS011;15182;48.174;11.562;2024-03-02T06:23:49;8.13;;;7.53;;
27802;SDS011;15182;48.174;11.562;2024-03-02T06:26:16;8.90;;;7.93;;
27802;SDS011;15182;48.174;11.562;2024-03-02T06:28:44;9.60;;;8.60;;
27802;SDS011;15182;48.174;11.562;2024-03-02T06:31:12;9.20;;;8.37;;
27802;SDS011;15182;48.174;11.562;2024-03-02T06:33:40;8.47;;;7.67;;
27802;SDS011;15182;48.174;11.562;2024-03-02T06:36:08;9.23;;;8.27;;
27802;SDS011;15182;48.174;11.562;2024-03-02T06:38:39;8.37;;;7.63;;
27802;SDS011;15182;48.174;11.562;2024-03-02T06:41:07;8.77;;;8.07;;
27802;SDS011;15182;48.174;11.562;2024-03-02T06:43:35;10.17;;;9.20;;
27802;SDS011;15182;48.174;11.562;2024-03-02T06:46:04;10.10;;;9.00;;
27802;SDS011;15182;48.174;11.562;2024-03-02T06:48:35;9.30;;;8.40;;
27802;SDS011;15182;48.174;11.562;2024-03-02T06:51:03;9.47;;;8.60;;
27802;SDS011;15182;48.174;11.562;2024-03-02T06:53:31;9.10;;;8.37;;
27802;SDS011;15182;48.174;11.562;2024-03-02T06:56:01;9.30;;;8.40;;
27802;SDS011;15182;48.174;11.562;2024-03-02T06:58:29;9.17;;;8.37;;
27802;SDS011;15182;48.174;11.562;2024-03-02T07:00:56;9.20;;;8.40;;
27802;SDS011;15182;48.174;11.562;2024-03-02T07:03:26;8.97;;;8.20;;
27802;SDS011;15182;48.174;11.562;2024-03-02T07:05:53;9.07;;;8.27;;
27802;SDS011;15182;48.174;11.562;2024-03-02T07:08:21;9.17;;;8.37;;
27802;SDS011;15182;48.174;11.562;2024-03-02T07:10:49;9.80;;;9.00;;
27802;SDS011;15182;48.174;11.562;2024-03-02T07:13:18;8.93;;;8.10;;
27802;SDS011;15182;48.174;11.562;2024-03-02T07:15:46;9.93;;;8.93;;
27802;SDS011;15182;48.174;11.562;2024-03-02T07:18:31;10.20;;;9.27;;
27802;SDS011;15182;48.174;11.562;2024-03-02T07:21:00;9.73;;;8.90;;
27802;SDS011;15182;48.174;11.562;2024-03-02T07:23:28;12.27;;;9.60;;
27802;SDS011;15182;48.174;11.562;2024-03-02T07:25:57;10.30;;;9.30;;
27802;SDS011;15182;48.174;11.562;2024-03-02T07:28:28;10.13;;;9.10;;
27802;SDS011;15182;48.174;11.562;2024-03-02T07:30:59;9.33;;;8.43;;
27802;SDS011;15182;48.174;11.562;2024-03-02T07:33:26;11.13;;;9.37;;
27802;SDS011;15182;48.174;11.562;2024-03-02T07:35:54;10.43;;;9.33;;
27802;SDS011;15182;48.174;11.562;2024-03-02T07:38:22;9.70;;;8.80;;
27802;SDS011;15182;48.174;11.562;2024-03-02T07:40:50;9.87;;;8.97;;
27802;SDS011;15182;48.174;11.562;2024-03-02T07:43:18;11.03;;;9.37;;
27802;SDS011;15182;48.174;11.562;2024-03-02T07:45:48;11.00;;;10.00;;
27802;SDS011;15182;48.174;11.562;2024-03-02T07:48:16;12.13;;;10.30;;
27802;SDS011;15182;48.174;11.562;2024-03-02T07:50:44;10.37;;;9.37;;
27802;SDS011;15182;48.174;11.562;2024-03-02T07:53:12;9.60;;;8.80;;
27802;SDS011;15182;48.174;11.562;2024-03-02T07:55:40;13.43;;;10.13;;
27802;SDS011;15182;48.174;11.562;2024-03-02T07:58:08;11.17;;;9.97;;
27802;SDS011;15182;48.174;11.562;2024-03-02T08:00:38;13.40;;;10.33;;
27802;SDS011;15182;48.174;11.562;2024-03-02T08:03:07;14.40;;;11.03;;
27802;SDS011;15182;48.174;11.562;2024-03-02T08:05:37;15.33;;;10.93;;
27802;SDS011;15182;48.174;11.562;2024-03-02T08:08:05;14.73;;;11.43;;
27802;SDS011;15182;48.174;11.562;2024-03-02T08:10:33;16.47;;;11.77;;
27802;SDS011;15182;48.174;11.562;2024-03-02T08:13:01;14.53;;;11.23;;
27802;SDS011;15182;48.174;11.562;2024-03-02T08:15:29;12.40;;;10.53;;
27802;SDS011;15182;48.174;11.562;2024-03-02T08:17:57;15.07;;;11.27;;
27802;SDS011;15182;48.174;11.562;2024-03-02T08:20:26;17.37;;;10.30;;
27802;SDS011;15182;48.174;11.562;2024-03-02T08:22:54;11.37;;;9.90;;
27802;SDS011;15182;48.174;11.562;2024-03-02T08:25:22;12.83;;;10.40;;
27802;SDS011;15182;48.174;11.562;2024-03-02T08:27:50;11.47;;;9.50;;
27802;SDS011;15182;48.174;11.562;2024-03-02T08:30:18;10.63;;;9.47;;
27802;SDS011;15182;48.174;11.562;2024-03-02T08:32:45;10.40;;;9.40;;
27802;SDS011;15182;48.174;11.562;2024-03-02T08:35:13;10.63;;;9.20;;
27802;SDS011;15182;48.174;11.562;2024-03-02T08:37:43;9.27;;;8.37;;
27802;SDS011;15182;48.174;11.562;2024-03-02T08:40:11;10.87;;;8.80;;
27802;SDS011;15182;48.174;11.562;2024-03-02T08:42:39;10.40;;;9.30;;
27802;SDS011;15182;48.174;11.562;2024-03-02T08:45:07;9.40;;;8.50;;
27802;SDS011;15182;48.174;11.562;2024-03-02T08:47:36;10.03;;;8.40;;
27802;SDS011;15182;48.174;11.562;2024-03-02T08:50:04;8.77;;;7.80;;
27802;SDS011;15182;48.174;11.562;2024-03-02T08:52:34;15.60;;;9.30;;
27802;SDS011;15182;48.174;11.562;2024-03-02T08:55:04;9.40;;;8.40;;
27802;SDS011;15182;48.174;11.562;2024-03-02T08:57:33;10.70;;;8.87;;
27802;SDS011;15182;48.174;11.562;2024-03-02T09:00:01;11.13;;;9.60;;
27802;SDS011;15182;48.174;11.562;2024-03-02T09:02:29;11.90;;;10.33;;
27802;SDS011;15182;48.174;11.562;2024-03-02T09:04:56;11.07;;;9.53;;
27802;SDS011;15182;48.174;11.562;2024-03-02T09:07:25;10.00;;;9.00;;
27802;SDS011;15182;48.174;11.562;2024-03-02T09:09:53;10.50;;;9.40;;
27802;SDS011;15182;48.174;11.562;2024-03-02T09:12:22;11.07;;;9.17;;
27802;SDS011;15182;48.174;11.562;2024-03-02T09:14:50;12.97;;;10.00;;
27802;SDS011;15182;48.174;11.562;2024-03-02T09:17:18;10.13;;;9.10;;
27802;SDS011;15182;48.174;11.562;2024-03-02T09:19:46;10.90;;;9.80;;
27802;SDS011;15182;48.174;11.562;2024-03-02T09:22:14;10.70;;;9.60;;
27802;SDS011;15182;48.174;11.562;2024-03-02T09:24:42;11.90;;;9.77;;
27802;SDS011;15182;48.174;11.562;2024-03-02T09:27:10;10.90;;;9.73;;
27802;SDS011;15182;48.174;11.562;2024-03-02T09:29:39;11.57;;;9.60;;
27802;SDS011;15182;48.174;11.562;2024-03-02T09:32:08;12.63;;;10.43;;
27802;SDS011;15182;48.174;11.562;2024-03-02T09:34:39;12.60;;;10.70;;
27802;SDS011;15182;48.174;11.562;2024-03-02T09:37:09;13.47;;;10.43;;
27802;SDS011;15182;48.174;11.562;2024-03-02T09:39:37;14.00;;;10.30;;
27802;SDS011;15182;48.174;11.562;2024-03-02T09:42:05;13.47;;;10.50;;
27802;SDS011;15182;48.174;11.562;2024-03-02T09:44:33;13.60;;;10.10;;
27802;SDS011;15182;48.174;11.562;2024-03-02T09:47:03;12.87;;;9.53;;
27802;SDS011;15182;48.174;11.562;2024-03-02T09:49:31;15.77;;;10.03;;
27802;SDS011;15182;48.174;11.562;2024-03-02T09:51:59;12.43;;;9.30;;
27802;SDS011;15182;48.174;11.562;2024-03-02T09:54:30;10.10;;;8.90;;
27802;SDS011;15182;48.174;11.562;2024-03-02T09:56:58;10.50;;;8.83;;
27802;SDS011;15182;48.174;11.562;2024-03-02T09:59:27;8.73;;;7.77;;
27802;SDS011;15182;48.174;11.562;2024-03-02T10:01:56;8.50;;;7.73;;
27802;SDS011;15182;48.174;11.562;2024-03-02T10:04:28;8.33;;;7.50;;
27802;SDS011;15182;48.174;11.562;2024-03-02T10:07:13;8.40;;;7.70;;
27802;SDS011;15182;48.174;11.562;2024-03-02T10:09:44;8.83;;;8.03;;
27802;SDS011;15182;48.174;11.562;2024-03-02T10:12:13;8.70;;;7.83;;
27802;SDS011;15182;48.174;11.562;2024-03-02T10:14:44;8.73;;;7.83;;
27802;SDS011;15182;48.174;11.562;2024-03-02T10:17:14;9.07;;;7.70;;
27802;SDS011;15182;48.174;11.562;2024-03-02T10:19:46;11.27;;;7.60;;
27802;SDS011;15182;48.174;11.562;2024-03-02T10:22:14;28.40;;;8.10;;
27802;SDS011;15182;48.174;11.562;2024-03-02T10:24:43;11.27;;;8.17;;
27802;SDS011;15182;48.174;11.562;2024-03-02T10:27:14;8.77;;;7.97;;
27802;SDS011;15182;48.174;11.562;2024-03-02T10:29:45;9.47;;;8.47;;
27802;SDS011;15182;48.174;11.562;2024-03-02T10:32:14;8.90;;;7.27;;
27802;SDS011;15182;48.174;11.562;2024-03-02T10:34:44;9.47;;;7.97;;
27802;SDS011;15182;48.174;11.562;2024-03-02T10:37:14;20.33;;;8.60;;
27802;SDS011;15182;48.174;11.562;2024-03-02T10:39:44;10.47;;;8.70;;
27802;SDS011;15182;48.174;11.562;2024-03-02T10:42:13;8.40;;;7.57;;
27802;SDS011;15182;48.174;11.562;2024-03-02T10:44:42;11.63;;;8.93;;
27802;SDS011;15182;48.174;11.562;2024-03-02T10:47:10;13.20;;;8.13;;
27802;SDS011;15182;48.174;11.562;2024-03-02T10:49:41;9.83;;;8.33;;
27802;SDS011;15182;48.174;11.562;2024-03-02T10:52:11;10.53;;;7.83;;
27802;SDS011;15182;48.174;11.562;2024-03-02T10:54:39;11.03;;;8.53;;
27802;SDS011;15182;48.174;11.562;2024-03-02T10:57:07;10.07;;;8.37;;
27802;SDS011;15182;48.174;11.562;2024-03-02T10:59:37;8.67;;;7.77;;
27802;SDS011;15182;48.174;11.562;2024-03-02T11:02:17;8.27;;;7.33;;
27802;SDS011;15182;48.174;11.562;2024-03-02T11:04:48;7.47;;;6.70;;
27802;SDS011;15182;48.174;11.562;2024-03-02T11:07:22;10.60;;;7.90;;
27802;SDS011;15182;48.174;11.562;2024-03-02T11:09:53;10.17;;;8.07;;
27802;SDS011;15182;48.174;11.562;2024-03-02T11:12:27;9.10;;;8.20;;
27802;SDS011;15182;48.174;11.562;2024-03-02T11:14:57;10.30;;;7.97;;
27802;SDS011;15182;48.174;11.562;2024-03-02T11:17:26;9.03;;;8.17;;
27802;SDS011;15182;48.174;11.562;2024-03-02T11:19:55;10.33;;;7.60;;
27802;SDS011;15182;48.174;11.562;2024-03-02T11:22:25;9.07;;;8.10;;
27802;SDS011;15182;48.174;11.562;2024-03-02T11:24:53;8.80;;;7.53;;
27802;SDS011;15182;48.174;11.562;2024-03-02T11:30:48;9.27;;;8.07;;
27802;SDS011;15182;48.174;11.562;2024-03-02T11:33:26;9.80;;;7.63;;
27802;SDS011;15182;48.174;11.562;2024-03-02T11:35:56;10.70;;;8.73;;
27802;SDS011;15182;48.174;11.562;2024-03-02T11:38:32;10.50;;;8.67;;
27802;SDS011;15182;48.174;11.562;2024-03-02T11:41:03;12.93;;;9.80;;
27802;SDS011;15182;48.174;11.562;2024-03-02T11:43:36;14.70;;;10.70;;
27802;SDS011;15182;48.174;11.562;2024-03-02T11:46:06;14.13;;;11.07;;
27802;SDS011;15182;48.174;11.562;2024-03-02T11:48:35;15.33;;;10.67;;
27802;SDS011;15182;48.174;11.562;2024-03-02T11:51:04;14.03;;;10.93;;
27802;SDS011;15182;48.174;11.562;2024-03-02T11:53:33;15.17;;;10.93;;
27802;SDS011;15182;48.174;11.562;2024-03-02T11:56:06;14.57;;;10.70;;
27802;SDS011;15182;48.174;11.562;2024-03-02T11:58:37;16.23;;;11.27;;
27802;SDS011;15182;48.174;11.562;2024-03-02T12:01:07;19.73;;;12.77;;
27802;SDS011;15182;48.174;11.562;2024-03-02T12:03:35;17.17;;;11.67;;
27802;SDS011;15182;48.174;11.562;2024-03-02T12:06:03;17.77;;;12.00;;
27802;SDS011;15182;48.174;11.562;2024-03-02T12:08:32;15.47;;;10.73;;
27802;SDS011;15182;48.174;11.562;2024-03-02T12:11:01;15.67;;;12.07;;
27802;SDS011;15182;48.174;11.562;2024-03-02T12:13:32;17.73;;;11.33;;
27802;SDS011;15182;48.174;11.562;2024-03-02T12:16:00;18.30;;;11.17;;
27802;SDS011;15182;48.174;11.562;2024-03-02T12:18:28;15.57;;;10.87;;
27802;SDS011;15182;48.174;11.562;2024-03-02T12:20:56;17.43;;;10.37;;
27802;SDS011;15182;48.174;11.562;2024-03-02T12:23:26;14.10;;;10.10;;
27802;SDS011;15182;48.174;11.562;2024-03-02T12:25:56;15.37;;;10.93;;
27802;SDS011;15182;48.174;11.562;2024-03-02T12:28:24;16.80;;;11.40;;
27802;SDS011;15182;48.174;11.562;2024-03-02T12:30:52;11.47;;;9.77;;
27802;SDS011;15182;48.174;11.562;2024-03-02T12:33:22;15.63;;;10.37;;
27802;SDS011;15182;48.174;11.562;2024-03-02T12:35:50;14.00;;;10.60;;
27802;SDS011;15182;48.174;11.562;2024-03-02T12:38:18;15.93;;;10.57;;
27802;SDS011;15182;48.174;11.562;2024-03-02T12:40:47;15.57;;;10.90;;
27802;SDS011;15182;48.174;11.562;2024-03-02T12:43:17;15.97;;;10.97;;
27802;SDS011;15182;48.174;11.562;2024-03-02T12:45:45;11.03;;;9.80;;
27802;SDS011;15182;48.174;11.562;2024-03-02T12:48:13;15.73;;;10.30;;
27802;SDS011;15182;48.174;11.562;2024-03-02T12:50:41;13.30;;;9.87;;
27802;SDS011;15182;48.174;11.562;2024-03-02T12:53:13;13.33;;;10.33;;
27802;SDS011;15182;48.174;11.562;2024-03-02T12:55:42;14.07;;;10.37;;
27802;SDS011;15182;48.174;11.562;2024-03-02T12:58:18;12.33;;;9.83;;
27802;SDS011;15182;48.174;11.562;2024-03-02T13:00:48;12.27;;;9.67;;
27802;SDS011;15182;48.174;11.562;2024-03-02T13:03:17;14.33;;;10.20;;
27802;SDS011;15182;48.174;11.562;2024-03-02T13:05:48;14.90;;;9.93;;
27802;SDS011;15182;48.174;11.562;2024-03-02T13:08:16;13.17;;;10.57;;
27802;SDS011;15182;48.174;11.562;2024-03-02T13:10:44;13.73;;;10.73;;
27802;SDS011;15182;48.174;11.562;2024-03-02T13:13:13;15.30;;;10.90;;
27802;SDS011;15182;48.174;11.562;2024-03-02T13:15:43;16.27;;;10.40;;
27802;SDS011;15182;48.174;11.562;2024-03-02T13:18:11;13.67;;;10.70;;
27802;SDS011;15182;48.174;11.562;2024-03-02T13:20:39;12.87;;;10.70;;
27802;SDS011;15182;48.174;11.562;2024-03-02T13:23:07;13.50;;;10.57;;
27802;SDS011;15182;48.174;11.562;2024-03-02T13:25:36;14.87;;;10.83;;
27802;SDS011;15182;48.174;11.562;2024-03-02T13:28:05;14.77;;;10.87;;
27802;SDS011;15182;48.174;11.562;2024-03-02T13:30:34;14.60;;;11.80;;
27802;SDS011;15182;48.174;11.562;2024-03-02T13:33:03;12.50;;;10.40;;
27802;SDS011;15182;48.174;11.562;2024-03-02T13:35:32;14.20;;;11.07;;
27802;SDS011;15182;48.174;11.562;2024-03-02T13:38:00;12.13;;;9.47;;
27802;SDS011;15182;48.174;11.562;2024-03-02T13:40:28;15.83;;;10.97;;
27802;SDS011;15182;48.174;11.562;2024-03-02T13:43:03;12.97;;;10.07;;
27802;SDS011;15182;48.174;11.562;2024-03-02T13:45:34;13.90;;;10.33;;
27802;SDS011;15182;48.174;11.562;2024-03-02T13:48:04;15.70;;;10.67;;
27802;SDS011;15182;48.174;11.562;2024-03-02T13:50:33;16.03;;;11.30;;
27802;SDS011;15182;48.174;11.562;2024-03-02T13:53:02;11.43;;;9.87;;
27802;SDS011;15182;48.174;11.562;2024-03-02T13:55:31;17.50;;;11.93;;
27802;SDS011;15182;48.174;11.562;2024-03-02T13:57:59;17.47;;;11.70;;
27802;SDS011;15182;48.174;11.562;2024-03-02T14:00:27;16.20;;;11.30;;
27802;SDS011;15182;48.174;11.562;2024-03-02T14:02:55;20.87;;;11.43;;
27802;SDS011;15182;48.174;11.562;2024-03-02T14:05:24;14.20;;;10.93;;
27802;SDS011;15182;48.174;11.562;2024-03-02T14:07:53;15.50;;;11.57;;
27802;SDS011;15182;48.174;11.562;2024-03-02T14:10:21;13.93;;;10.47;;
27802;SDS011;15182;48.174;11.562;2024-03-02T14:12:49;12.17;;;9.43;;
27802;SDS011;15182;48.174;11.562;2024-03-02T14:15:17;12.30;;;9.37;;
27802;SDS011;15182;48.174;11.562;2024-03-02T14:17:45;15.27;;;10.30;;
27802;SDS011;15182;48.174;11.562;2024-03-02T14:20:13;16.43;;;10.77;;
27802;SDS011;15182;48.174;11.562;2024-03-02T14:22:47;11.80;;;10.00;;
27802;SDS011;15182;48.174;11.562;2024-03-02T14:25:17;13.33;;;9.97;;
27802;SDS011;15182;48.174;11.562;2024-03-02T14:27:45;13.07;;;10.23;;
27802;SDS011;15182;48.174;11.562;2024-03-02T14:30:14;13.83;;;9.10;;
27802;SDS011;15182;48.174;11.562;2024-03-02T14:32:42;12.77;;;9.93;;
27802;SDS011;15182;48.174;11.562;2024-03-02T14:35:10;15.07;;;10.37;;
27802;SDS011;15182;48.174;11.562;2024-03-02T14:37:38;14.33;;;10.07;;
27802;SDS011;15182;48.174;11.562;2024-03-02T14:40:08;15.07;;;9.93;;